createdAt,value
2022-07-30T00:00:47.321Z,18.10
2022-07-30T00:03:16.168Z,18.10
2022-07-30T00:05:44.814Z,18.00
2022-07-30T00:08:13.478Z,18.00
2022-07-30T00:10:42.548Z,18.00
2022-07-30T00:13:14.224Z,18.00
2022-07-30T00:15:44.771Z,17.90
2022-07-30T00:18:13.529Z,17.90
2022-07-30T00:20:44.286Z,17.90
2022-07-30T00:23:13.396Z,17.90
2022-07-30T00:25:42.155Z,17.90
2022-07-30T00:28:10.585Z,17.80
2022-07-30T00:30:40.886Z,17.80
2022-07-30T00:33:10.839Z,17.80
2022-07-30T00:35:39.999Z,17.80
2022-07-30T00:38:08.744Z,17.70
2022-07-30T00:40:37.573Z,17.70
2022-07-30T00:43:06.060Z,17.70
2022-07-30T00:45:36.045Z,17.60
2022-07-30T00:48:04.731Z,17.60
2022-07-30T00:50:34.780Z,17.60
2022-07-30T00:53:03.573Z,17.60
2022-07-30T00:55:32.622Z,17.60
2022-07-30T00:58:01.413Z,17.50
2022-07-30T01:00:31.129Z,17.50
2022-07-30T01:03:01.107Z,17.40
2022-07-30T01:05:29.756Z,17.50
2022-07-30T01:07:59.918Z,17.40
2022-07-30T01:10:28.545Z,17.40
2022-07-30T01:12:59.257Z,17.40
2022-07-30T01:15:28.147Z,17.30
2022-07-30T01:18:01.209Z,17.30
2022-07-30T01:20:33.724Z,17.30
2022-07-30T01:23:14.282Z,17.30
2022-07-30T01:25:55.610Z,17.30
2022-07-30T01:28:28.094Z,17.20
2022-07-30T01:30:58.938Z,17.20
2022-07-30T01:33:29.047Z,17.20
2022-07-30T01:36:53.137Z,17.20
2022-07-30T01:39:22.324Z,17.10
2022-07-30T01:41:54.158Z,17.10
2022-07-30T01:44:24.765Z,17.10
2022-07-30T01:46:55.756Z,17.10
2022-07-30T01:49:27.116Z,17.10
2022-07-30T01:51:56.548Z,17.10
2022-07-30T01:54:27.943Z,17.00
2022-07-30T01:57:00.574Z,17.00
2022-07-30T01:59:31.547Z,17.00
2022-07-30T02:02:01.040Z,17.00
2022-07-30T02:04:29.652Z,17.00
2022-07-30T02:07:05.469Z,16.90
2022-07-30T02:09:37.310Z,16.90
2022-07-30T02:12:27.920Z,16.90
2022-07-30T02:15:08.474Z,16.90
2022-07-30T02:17:44.984Z,16.90
2022-07-30T02:20:15.713Z,16.90
2022-07-30T02:22:47.684Z,16.80
2022-07-30T02:25:21.314Z,16.80
2022-07-30T02:27:56.237Z,16.80
2022-07-30T02:30:29.208Z,16.80
2022-07-30T02:33:02.409Z,16.80
2022-07-30T02:35:32.758Z,16.80
2022-07-30T02:38:03.282Z,16.80
2022-07-30T02:40:32.319Z,16.70
2022-07-30T02:43:02.689Z,16.70
2022-07-30T02:45:32.562Z,16.70
2022-07-30T02:48:06.648Z,16.70
2022-07-30T02:50:36.751Z,16.70
2022-07-30T02:53:10.113Z,16.70
2022-07-30T02:55:40.794Z,16.70
2022-07-30T02:58:12.161Z,16.60
2022-07-30T03:00:40.967Z,16.60
2022-07-30T03:03:11.444Z,16.60
2022-07-30T03:05:41.080Z,16.60
2022-07-30T03:08:10.234Z,16.60
2022-07-30T03:10:40.894Z,16.60
2022-07-30T03:13:13.091Z,16.60
2022-07-30T03:15:46.929Z,16.60
2022-07-30T03:18:17.974Z,16.60
2022-07-30T03:20:50.080Z,16.60
2022-07-30T03:23:20.512Z,16.60
2022-07-30T03:25:54.430Z,16.70
2022-07-30T03:28:26.618Z,16.70
2022-07-30T03:30:56.274Z,16.70
2022-07-30T03:33:38.678Z,16.80
2022-07-30T03:36:09.985Z,16.80
2022-07-30T03:38:40.814Z,16.80
2022-07-30T03:41:11.704Z,16.90
2022-07-30T03:43:42.319Z,17.00
2022-07-30T03:46:13.287Z,17.00
2022-07-30T03:48:42.657Z,17.10
2022-07-30T03:51:12.081Z,17.30
2022-07-30T03:53:43.106Z,17.40
2022-07-30T03:56:12.381Z,17.40
2022-07-30T03:58:42.796Z,17.60
2022-07-30T04:01:11.972Z,17.70
2022-07-30T04:03:41.011Z,17.80
2022-07-30T04:06:09.702Z,17.80
2022-07-30T04:08:38.441Z,17.90
2022-07-30T04:11:07.144Z,18.00
2022-07-30T04:13:35.827Z,18.10
2022-07-30T04:16:40.811Z,18.10
2022-07-30T04:19:02.471Z,18.20
2022-07-30T04:21:33.477Z,18.20
2022-07-30T04:24:05.065Z,18.20
2022-07-30T04:26:37.090Z,18.30
2022-07-30T04:29:08.242Z,18.30
2022-07-30T04:31:40.831Z,18.50
2022-07-30T04:34:13.921Z,18.80
2022-07-30T04:36:43.725Z,19.10
2022-07-30T04:39:12.722Z,19.50
2022-07-30T04:41:48.693Z,19.70
2022-07-30T04:44:20.074Z,19.90
2022-07-30T04:46:50.137Z,19.90
2022-07-30T04:49:20.427Z,19.90
2022-07-30T04:51:50.477Z,19.80
2022-07-30T04:54:22.285Z,19.70
2022-07-30T04:56:53.477Z,19.60
2022-07-30T04:59:24.850Z,19.50
2022-07-30T05:01:57.379Z,19.40
2022-07-30T05:04:27.645Z,19.30
2022-07-30T05:06:58.364Z,19.30
2022-07-30T05:09:27.749Z,19.20
2022-07-30T05:11:57.350Z,19.20
2022-07-30T05:14:26.755Z,19.20
2022-07-30T05:16:56.805Z,19.20
2022-07-30T05:19:25.331Z,19.30
2022-07-30T05:21:54.193Z,19.30
2022-07-30T05:24:23.219Z,19.30
2022-07-30T05:26:52.004Z,19.40
2022-07-30T05:29:20.847Z,19.40
2022-07-30T05:31:50.559Z,19.40
2022-07-30T05:34:21.029Z,19.50
2022-07-30T05:36:51.117Z,19.60
2022-07-30T05:39:19.687Z,19.60
2022-07-30T05:41:48.259Z,19.70
2022-07-30T05:44:19.659Z,19.90
2022-07-30T05:46:50.741Z,19.90
2022-07-30T05:49:21.400Z,20.00
2022-07-30T05:51:49.926Z,20.10
2022-07-30T05:54:19.044Z,20.30
2022-07-30T05:56:48.231Z,20.50
2022-07-30T05:59:16.896Z,20.70
2022-07-30T06:01:45.649Z,21.00
2022-07-30T06:04:14.499Z,21.40
2022-07-30T06:06:44.474Z,21.70
2022-07-30T06:09:13.554Z,22.20
2022-07-30T06:11:42.353Z,22.70
2022-07-30T06:14:11.245Z,23.20
2022-07-30T06:16:42.533Z,23.70
2022-07-30T06:19:19.515Z,24.00
2022-07-30T06:22:01.714Z,24.20
2022-07-30T06:24:36.028Z,24.30
2022-07-30T06:27:04.939Z,24.30
2022-07-30T06:29:33.954Z,24.40
2022-07-30T06:32:02.747Z,24.20
2022-07-30T06:34:31.501Z,24.10
2022-07-30T06:37:01.953Z,23.90
2022-07-30T06:39:56.887Z,23.70
2022-07-30T06:42:20.053Z,23.30
2022-07-30T06:44:48.947Z,23.10
2022-07-30T06:47:26.188Z,22.90
2022-07-30T06:49:55.061Z,22.70
2022-07-30T06:52:25.412Z,22.50
2022-07-30T06:54:54.306Z,22.40
2022-07-30T06:57:23.148Z,22.30
2022-07-30T06:59:56.635Z,22.20
2022-07-30T07:02:26.261Z,22.20
2022-07-30T07:04:54.927Z,22.10
2022-07-30T07:07:40.919Z,22.10
2022-07-30T07:10:11.572Z,22.20
2022-07-30T07:12:40.156Z,22.20
2022-07-30T07:15:10.011Z,22.20
2022-07-30T07:17:40.434Z,22.20
2022-07-30T07:20:09.684Z,22.10
2022-07-30T07:22:39.786Z,22.20
2022-07-30T07:25:09.183Z,22.30
2022-07-30T07:27:38.423Z,22.40
2022-07-30T07:30:08.118Z,22.50
2022-07-30T07:32:37.967Z,22.70
2022-07-30T07:35:07.325Z,22.80
2022-07-30T07:37:36.003Z,23.00
2022-07-30T07:40:07.876Z,23.00
2022-07-30T07:42:36.692Z,23.20
2022-07-30T07:45:05.855Z,23.30
2022-07-30T07:47:52.003Z,23.50
2022-07-30T07:50:23.080Z,23.70
2022-07-30T07:52:51.887Z,23.80
2022-07-30T07:55:21.956Z,24.00
2022-07-30T07:57:50.575Z,24.20
2022-07-30T08:00:19.858Z,24.50
2022-07-30T08:02:49.772Z,24.80
2022-07-30T08:05:19.045Z,25.10
2022-07-30T08:07:47.897Z,25.40
2022-07-30T08:10:16.538Z,25.80
2022-07-30T08:12:46.690Z,26.10
2022-07-30T08:15:18.027Z,26.50
2022-07-30T08:17:49.187Z,26.80
2022-07-30T08:20:18.375Z,27.00
2022-07-30T08:22:47.061Z,27.20
2022-07-30T08:25:22.149Z,27.30
2022-07-30T08:27:54.488Z,27.40
2022-07-30T08:30:24.688Z,27.50
2022-07-30T08:32:53.203Z,27.50
2022-07-30T08:35:21.986Z,27.50
2022-07-30T08:37:50.561Z,27.50
2022-07-30T08:40:20.934Z,27.60
2022-07-30T08:42:50.318Z,27.60
2022-07-30T08:45:20.913Z,27.60
2022-07-30T08:48:12.479Z,27.60
2022-07-30T08:50:42.309Z,27.70
2022-07-30T08:53:11.245Z,27.80
2022-07-30T08:55:40.512Z,28.00
2022-07-30T08:58:18.993Z,28.10
2022-07-30T09:00:50.487Z,28.30
2022-07-30T09:03:19.033Z,28.20
2022-07-30T09:05:47.613Z,28.00
2022-07-30T09:08:17.748Z,27.80
2022-07-30T09:10:53.132Z,27.50
2022-07-30T09:13:27.666Z,27.30
2022-07-30T09:15:58.194Z,27.10
2022-07-30T09:18:32.407Z,27.20
2022-07-30T09:21:02.942Z,27.30
2022-07-30T09:23:31.684Z,27.40
2022-07-30T09:26:00.994Z,27.40
2022-07-30T09:28:31.313Z,27.20
2022-07-30T09:31:01.804Z,27.10
2022-07-30T09:33:37.995Z,27.10
2022-07-30T09:36:11.293Z,27.10
2022-07-30T09:38:48.584Z,27.20
2022-07-30T09:41:37.639Z,27.40
2022-07-30T09:44:07.688Z,27.50
2022-07-30T09:46:47.581Z,27.70
2022-07-30T09:49:18.488Z,27.80
2022-07-30T09:51:56.716Z,27.90
2022-07-30T09:54:26.838Z,27.90
2022-07-30T09:57:26.673Z,27.80
2022-07-30T10:02:50.558Z,27.80
2022-07-30T10:05:20.614Z,27.70
2022-07-30T10:07:51.533Z,27.60
2022-07-30T10:10:25.851Z,27.60
2022-07-30T10:12:59.403Z,27.50
2022-07-30T10:15:32.544Z,27.50
2022-07-30T10:18:06.396Z,27.40
2022-07-30T10:20:35.793Z,27.40
2022-07-30T10:23:09.406Z,27.30
2022-07-30T10:25:49.781Z,27.20
2022-07-30T10:28:24.758Z,27.10
2022-07-30T10:30:54.993Z,27.10
2022-07-30T10:33:36.347Z,27.00
2022-07-30T10:36:09.094Z,27.00
2022-07-30T10:38:41.698Z,27.00
2022-07-30T10:41:42.280Z,26.90
2022-07-30T10:44:42.777Z,27.00
2022-07-30T10:47:16.410Z,27.10
2022-07-30T10:50:07.741Z,27.20
2022-07-30T10:52:53.163Z,27.30
2022-07-30T10:55:37.322Z,27.30
2022-07-30T10:58:10.395Z,27.40
2022-07-30T11:01:00.483Z,27.40
2022-07-30T11:03:41.642Z,27.40
2022-07-30T11:06:29.388Z,27.40
2022-07-30T11:08:58.450Z,27.40
2022-07-30T11:12:01.215Z,27.40
2022-07-30T11:15:06.211Z,27.50
2022-07-30T11:18:01.098Z,27.40
2022-07-30T11:20:30.524Z,27.40
2022-07-30T11:23:14.154Z,27.40
2022-07-30T11:25:51.143Z,27.30
2022-07-30T11:28:38.793Z,27.20
2022-07-30T11:31:36.983Z,27.20
2022-07-30T11:34:28.931Z,27.20
2022-07-30T11:37:18.132Z,27.20
2022-07-30T11:40:12.146Z,27.20
2022-07-30T11:42:42.851Z,27.40
2022-07-30T11:45:27.298Z,27.50
2022-07-30T11:47:59.929Z,27.60
2022-07-30T11:50:31.506Z,27.70
2022-07-30T11:53:02.474Z,27.70
2022-07-30T11:55:34.540Z,27.70
2022-07-30T11:58:06.219Z,27.60
2022-07-30T12:00:39.972Z,27.60
2022-07-30T12:03:11.643Z,27.60
2022-07-30T12:05:41.356Z,27.60
2022-07-30T12:08:35.285Z,27.60
2022-07-30T12:11:02.385Z,27.50
2022-07-30T12:13:44.280Z,27.40
2022-07-30T12:16:16.109Z,27.30
2022-07-30T12:18:46.199Z,27.30
2022-07-30T12:21:16.314Z,27.10
2022-07-30T12:23:55.039Z,27.00
2022-07-30T12:26:27.469Z,26.90
2022-07-30T12:28:57.217Z,26.80
2022-07-30T12:31:26.263Z,26.70
2022-07-30T12:33:58.896Z,26.60
2022-07-30T12:36:31.022Z,26.60
2022-07-30T12:39:00.828Z,26.50
2022-07-30T12:41:47.955Z,26.50
2022-07-30T12:44:44.747Z,26.50
2022-07-30T12:47:24.987Z,26.40
2022-07-30T12:49:54.342Z,26.30
2022-07-30T12:52:30.801Z,26.30
2022-07-30T12:55:05.896Z,26.20
2022-07-30T12:57:55.489Z,26.20
2022-07-30T13:00:25.643Z,26.20
2022-07-30T13:02:54.855Z,26.20
2022-07-30T13:05:47.525Z,26.20
2022-07-30T13:08:16.569Z,26.10
2022-07-30T13:10:59.807Z,26.00
2022-07-30T13:13:31.094Z,25.90
2022-07-30T13:16:02.012Z,25.90
2022-07-30T13:18:31.911Z,25.90
2022-07-30T13:21:01.157Z,25.80
2022-07-30T13:23:30.822Z,25.70
2022-07-30T13:26:00.089Z,25.60
2022-07-30T13:28:31.951Z,25.60
2022-07-30T13:31:01.129Z,25.50
2022-07-30T13:33:29.697Z,25.40
2022-07-30T13:35:58.492Z,25.40
2022-07-30T13:38:27.697Z,25.40
2022-07-30T13:41:01.932Z,25.40
2022-07-30T13:43:34.041Z,25.40
2022-07-30T13:46:04.011Z,25.40
2022-07-30T13:48:33.412Z,25.40
2022-07-30T13:51:02.964Z,25.40
2022-07-30T13:53:31.643Z,25.40
2022-07-30T13:56:00.631Z,25.40
2022-07-30T13:58:34.062Z,25.40
2022-07-30T14:01:07.657Z,25.40
2022-07-30T14:03:36.788Z,25.40
2022-07-30T14:06:10.469Z,25.40
2022-07-30T14:08:40.250Z,25.40
2022-07-30T14:11:09.282Z,25.30
2022-07-30T14:13:38.006Z,25.30
2022-07-30T14:16:22.970Z,25.30
2022-07-30T14:18:57.750Z,25.30
2022-07-30T14:21:26.762Z,25.40
2022-07-30T14:23:55.348Z,25.30
2022-07-30T14:26:24.235Z,25.30
2022-07-30T14:29:05.102Z,25.30
2022-07-30T14:31:35.445Z,25.30
2022-07-30T14:34:04.876Z,25.30
2022-07-30T14:36:33.582Z,25.30
2022-07-30T14:39:04.269Z,25.30
2022-07-30T14:41:33.409Z,25.20
2022-07-30T14:44:02.537Z,25.20
2022-07-30T14:46:31.316Z,25.20
2022-07-30T14:49:01.398Z,25.20
2022-07-30T14:51:33.988Z,25.20
2022-07-30T14:54:03.760Z,25.20
2022-07-30T14:56:32.338Z,25.10
2022-07-30T14:59:01.321Z,25.10
2022-07-30T15:01:30.518Z,25.00
2022-07-30T15:04:00.629Z,25.00
2022-07-30T15:06:29.447Z,25.00
2022-07-30T15:08:58.257Z,25.00
2022-07-30T15:11:26.894Z,24.90
2022-07-30T15:13:55.555Z,24.80
2022-07-30T15:16:24.331Z,24.70
2022-07-30T15:18:52.988Z,24.60
2022-07-30T15:21:23.055Z,24.50
2022-07-30T15:23:51.835Z,24.40
2022-07-30T15:26:20.408Z,24.30
2022-07-30T15:28:48.989Z,24.20
2022-07-30T15:31:17.933Z,24.10
2022-07-30T15:33:47.342Z,24.10
2022-07-30T15:36:16.213Z,24.00
2022-07-30T15:38:46.483Z,23.90
2022-07-30T15:41:15.257Z,23.80
2022-07-30T15:43:43.943Z,23.70
2022-07-30T15:46:12.796Z,23.60
2022-07-30T15:48:41.291Z,23.50
2022-07-30T15:51:11.464Z,23.40
2022-07-30T15:53:40.387Z,23.30
2022-07-30T15:56:10.892Z,23.20
2022-07-30T15:58:43.399Z,23.20
2022-07-30T16:01:12.891Z,23.10
2022-07-30T16:03:41.571Z,23.00
2022-07-30T16:06:10.256Z,23.00
2022-07-30T16:08:39.242Z,23.00
2022-07-30T16:11:11.033Z,22.90
2022-07-30T16:13:39.863Z,22.80
2022-07-30T16:16:08.497Z,22.70
2022-07-30T16:18:37.247Z,22.70
2022-07-30T16:21:06.148Z,22.60
2022-07-30T16:23:36.618Z,22.50
2022-07-30T16:26:05.684Z,22.50
2022-07-30T16:28:35.951Z,22.40
2022-07-30T16:31:05.336Z,22.40
2022-07-30T16:33:33.996Z,22.30
2022-07-30T16:36:02.805Z,22.30
2022-07-30T16:38:31.336Z,22.30
2022-07-30T16:40:59.820Z,22.20
2022-07-30T16:43:28.727Z,22.20
2022-07-30T16:45:59.124Z,22.10
2022-07-30T16:48:28.145Z,22.10
2022-07-30T16:50:57.019Z,22.10
2022-07-30T16:53:25.562Z,22.10
2022-07-30T16:55:54.144Z,22.00
2022-07-30T16:58:28.402Z,22.00
2022-07-30T17:01:01.325Z,22.00
2022-07-30T17:03:30.139Z,22.00
2022-07-30T17:05:58.719Z,21.90
2022-07-30T17:08:27.560Z,21.90
2022-07-30T17:10:57.833Z,22.00
2022-07-30T17:13:26.792Z,21.90
2022-07-30T17:15:55.406Z,21.90
2022-07-30T17:18:25.532Z,21.90
2022-07-30T17:20:54.336Z,21.80
2022-07-30T17:23:22.976Z,21.80
2022-07-30T17:25:52.161Z,21.80
2022-07-30T17:28:27.057Z,21.80
2022-07-30T17:30:56.488Z,21.80
2022-07-30T17:33:26.791Z,21.70
2022-07-30T17:35:55.317Z,21.70
2022-07-30T17:38:24.139Z,21.70
2022-07-30T17:40:52.656Z,21.70
2022-07-30T17:43:21.349Z,21.60
2022-07-30T17:45:50.356Z,21.60
2022-07-30T17:48:19.242Z,21.60
2022-07-30T17:50:49.495Z,21.60
2022-07-30T17:53:18.422Z,21.60
2022-07-30T17:55:57.285Z,21.50
2022-07-30T17:58:27.291Z,21.50
2022-07-30T18:00:57.447Z,21.40
2022-07-30T18:03:26.212Z,21.40
2022-07-30T18:05:57.196Z,21.30
2022-07-30T18:08:26.292Z,21.30
2022-07-30T18:10:55.115Z,21.30
2022-07-30T18:13:26.448Z,21.20
2022-07-30T18:15:56.067Z,21.20
2022-07-30T18:18:24.868Z,21.20
2022-07-30T18:20:53.460Z,21.10
2022-07-30T18:23:23.585Z,21.10
2022-07-30T18:25:54.262Z,21.10
2022-07-30T18:28:23.317Z,21.10
2022-07-30T18:30:52.774Z,21.00
2022-07-30T18:33:21.631Z,21.00
2022-07-30T18:35:50.544Z,20.90
2022-07-30T18:38:19.276Z,20.90
2022-07-30T18:40:57.745Z,20.90
2022-07-30T18:43:27.747Z,20.80
2022-07-30T18:45:56.945Z,20.80
2022-07-30T18:48:25.701Z,20.80
2022-07-30T18:50:54.463Z,20.80
2022-07-30T18:53:23.288Z,20.70
2022-07-30T18:55:53.283Z,20.70
2022-07-30T18:58:21.860Z,20.70
2022-07-30T19:00:50.838Z,20.60
2022-07-30T19:03:23.043Z,20.60
2022-07-30T19:05:52.230Z,20.60
2022-07-30T19:08:20.783Z,20.60
2022-07-30T19:10:49.413Z,20.60
2022-07-30T19:13:19.677Z,20.60
2022-07-30T19:15:48.270Z,20.60
2022-07-30T19:18:17.503Z,20.50
2022-07-30T19:20:46.326Z,20.50
2022-07-30T19:23:16.521Z,20.50
2022-07-30T19:25:45.303Z,20.50
2022-07-30T19:28:15.560Z,20.40
2022-07-30T19:30:45.639Z,20.40
2022-07-30T19:33:15.883Z,20.40
2022-07-30T19:35:44.867Z,20.40
2022-07-30T19:38:21.407Z,20.40
2022-07-30T19:40:50.898Z,20.30
2022-07-30T19:43:22.594Z,20.30
2022-07-30T19:45:54.424Z,20.30
2022-07-30T19:48:28.893Z,20.30
2022-07-30T19:51:00.725Z,20.20
2022-07-30T19:53:31.175Z,20.20
2022-07-30T19:56:01.853Z,20.20
2022-07-30T19:58:32.078Z,20.20
2022-07-30T20:01:03.277Z,20.20
2022-07-30T20:03:39.129Z,20.10
2022-07-30T20:06:09.126Z,20.10
2022-07-30T20:08:44.934Z,20.10
2022-07-30T20:11:34.892Z,20.10
2022-07-30T20:14:03.215Z,20.10
2022-07-30T20:16:35.588Z,20.00
2022-07-30T20:19:04.755Z,20.00
2022-07-30T20:21:56.415Z,19.90
2022-07-30T20:24:22.458Z,19.90
2022-07-30T20:26:52.006Z,19.90
2022-07-30T20:29:20.887Z,19.90
2022-07-30T20:31:51.151Z,19.90
2022-07-30T20:37:15.875Z,19.90
2022-07-30T20:39:51.689Z,19.80
2022-07-30T20:42:21.879Z,19.80
2022-07-30T20:44:54.520Z,19.80
2022-07-30T20:47:38.159Z,19.80
2022-07-30T20:50:09.654Z,19.80
2022-07-30T20:52:57.752Z,19.80
2022-07-30T20:55:26.500Z,19.70
2022-07-30T20:58:02.813Z,19.70
2022-07-30T21:00:49.564Z,19.70
2022-07-30T21:03:21.882Z,19.60
2022-07-30T21:05:52.612Z,19.60
2022-07-30T21:08:25.074Z,19.60
2022-07-30T21:10:55.486Z,19.60
2022-07-30T21:13:26.121Z,19.60
2022-07-30T21:16:02.659Z,19.50
2022-07-30T21:18:34.090Z,19.50
2022-07-30T21:21:04.864Z,19.50
2022-07-30T21:23:34.261Z,19.50
2022-07-30T21:26:10.621Z,19.50
2022-07-30T21:28:42.687Z,19.50
2022-07-30T21:31:12.378Z,19.50
2022-07-30T21:33:44.440Z,19.50
2022-07-30T21:36:14.016Z,19.40
2022-07-30T21:38:43.799Z,19.40
2022-07-30T21:41:14.312Z,19.30
2022-07-30T21:43:44.681Z,19.30
2022-07-30T21:46:13.622Z,19.30
2022-07-30T21:48:44.366Z,19.30
2022-07-30T21:51:15.797Z,19.30
2022-07-30T21:53:46.488Z,19.20
2022-07-30T21:56:16.286Z,19.20
2022-07-30T21:58:45.867Z,19.20
2022-07-30T22:01:22.552Z,19.20
2022-07-30T22:04:03.217Z,19.20
2022-07-30T22:06:38.017Z,19.20
2022-07-30T22:09:18.804Z,19.10
2022-07-30T22:12:00.857Z,19.10
2022-07-30T22:14:31.436Z,19.10
2022-07-30T22:17:00.536Z,19.10
2022-07-30T22:19:34.691Z,19.10
2022-07-30T22:22:25.851Z,19.10
2022-07-30T22:24:52.033Z,19.10
2022-07-30T22:27:22.030Z,19.10
2022-07-30T22:29:50.961Z,19.10
2022-07-30T22:32:24.657Z,19.10
2022-07-30T22:34:54.544Z,19.10
2022-07-30T22:37:34.136Z,19.10
2022-07-30T22:40:03.378Z,19.10
2022-07-30T22:42:36.537Z,19.10
2022-07-30T22:45:15.497Z,19.10
2022-07-30T22:47:51.550Z,19.10
2022-07-30T22:50:26.098Z,19.10
2022-07-30T22:52:56.719Z,19.10
2022-07-30T22:55:38.943Z,19.00
2022-07-30T22:58:07.834Z,19.00
2022-07-30T23:00:39.117Z,19.00
2022-07-30T23:03:07.893Z,19.00
2022-07-30T23:05:40.026Z,19.00
2022-07-30T23:08:12.637Z,19.00
2022-07-30T23:10:41.577Z,19.00
2022-07-30T23:12:19.315Z,19.90
2022-07-30T23:13:10.109Z,19.00
2022-07-30T23:15:38.697Z,19.00
2022-07-30T23:18:07.708Z,18.90
2022-07-30T23:20:37.653Z,18.90
2022-07-30T23:23:06.194Z,18.90
2022-07-30T23:25:38.902Z,18.90
2022-07-30T23:28:07.811Z,18.90
2022-07-30T23:30:36.504Z,18.80
2022-07-30T23:33:05.718Z,18.90
2022-07-30T23:35:35.160Z,18.80
2022-07-30T23:38:05.397Z,18.80
2022-07-30T23:40:34.027Z,18.80
2022-07-30T23:43:02.701Z,18.80
2022-07-30T23:45:31.463Z,18.80
2022-07-30T23:48:02.600Z,18.80
2022-07-30T23:50:32.934Z,18.80
2022-07-30T23:53:02.065Z,18.80
2022-07-30T23:55:33.033Z,18.80
2022-07-30T23:58:01.868Z,18.80
